createdAt,value
2023-03-11T00:01:23.346Z,18.33
2023-03-11T00:06:26.566Z,18.58
2023-03-11T00:11:29.682Z,17.23
2023-03-11T00:16:32.692Z,14.63
2023-03-11T00:21:35.744Z,17.42
2023-03-11T00:26:38.755Z,18.20
2023-03-11T00:31:41.695Z,16.42
2023-03-11T00:36:44.702Z,17.27
2023-03-11T00:41:47.779Z,19.55
2023-03-11T00:46:50.746Z,20.20
2023-03-11T00:51:53.704Z,18.15
2023-03-11T00:56:56.848Z,17.42
2023-03-11T01:02:00.124Z,17.45
2023-03-11T01:07:03.748Z,17.58
2023-03-11T01:12:06.808Z,18.75
2023-03-11T01:17:10.914Z,18.63
2023-03-11T01:22:14.068Z,18.95
2023-03-11T01:27:17.053Z,18.27
2023-03-11T01:32:20.145Z,22.90
2023-03-11T01:37:23.496Z,28.85
2023-03-11T01:42:26.547Z,23.98
2023-03-11T01:47:38.921Z,22.70
2023-03-11T01:52:44.569Z,22.10
2023-03-11T01:57:48.527Z,22.95
2023-03-11T02:02:54.106Z,23.65
2023-03-11T02:07:58.612Z,26.35
2023-03-11T02:13:06.748Z,23.70
2023-03-11T02:18:12.709Z,29.08
2023-03-11T02:23:19.042Z,27.73
2023-03-11T02:28:23.627Z,21.23
2023-03-11T02:33:30.291Z,16.73
2023-03-11T02:38:33.646Z,16.80
2023-03-11T02:43:44.121Z,16.63
2023-03-11T02:53:57.987Z,17.40
2023-03-11T02:59:02.011Z,17.25
2023-03-11T03:04:06.314Z,17.90
2023-03-11T03:09:10.062Z,17.38
2023-03-11T03:14:13.197Z,14.70
2023-03-11T03:19:16.380Z,17.00
2023-03-11T03:24:19.464Z,18.02
2023-03-11T03:29:22.753Z,18.92
2023-03-11T03:34:26.354Z,17.70
2023-03-11T03:39:30.707Z,18.55
2023-03-11T03:44:34.751Z,16.42
2023-03-11T03:49:38.875Z,17.90
2023-03-11T03:54:42.673Z,17.10
2023-03-11T03:59:45.809Z,17.83
2023-03-11T04:04:49.033Z,16.17
2023-03-11T04:09:52.071Z,17.92
2023-03-11T04:14:55.216Z,21.23
2023-03-11T04:19:59.171Z,24.92
2023-03-11T04:25:03.061Z,25.45
2023-03-11T04:30:09.178Z,24.10
2023-03-11T04:35:12.308Z,22.90
2023-03-11T04:40:16.192Z,24.40
2023-03-11T04:45:19.368Z,24.73
2023-03-11T04:50:24.118Z,23.50
2023-03-11T04:55:27.996Z,23.80
2023-03-11T05:00:31.090Z,24.42
2023-03-11T05:05:40.598Z,24.13
2023-03-11T05:10:44.763Z,23.20
2023-03-11T05:15:49.187Z,29.92
2023-03-11T05:20:53.654Z,28.30
2023-03-11T05:26:00.926Z,30.77
2023-03-11T05:31:09.703Z,20.00
2023-03-11T05:36:17.024Z,15.98
2023-03-11T05:41:21.302Z,16.38
2023-03-11T05:46:24.486Z,13.93
2023-03-11T05:51:28.727Z,15.05
2023-03-11T05:56:31.998Z,16.67
2023-03-11T06:01:35.762Z,17.33
2023-03-11T06:06:41.565Z,16.10
2023-03-11T06:21:55.535Z,17.48
2023-03-11T06:26:58.711Z,16.50
2023-03-11T06:32:04.360Z,17.13
2023-03-11T06:37:07.485Z,14.05
2023-03-11T06:42:11.578Z,15.88
2023-03-11T06:47:14.913Z,16.30
2023-03-11T06:52:18.222Z,14.98
2023-03-11T06:57:21.980Z,15.30
2023-03-11T07:02:27.100Z,14.13
2023-03-11T07:07:30.261Z,13.15
2023-03-11T07:12:33.848Z,11.82
2023-03-11T07:17:37.427Z,12.07
2023-03-11T07:22:40.467Z,13.65
2023-03-11T07:27:43.369Z,12.77
2023-03-11T07:32:46.482Z,13.80
2023-03-11T07:37:49.463Z,12.77
2023-03-11T07:42:52.568Z,13.68
2023-03-11T07:47:57.648Z,12.88
2023-03-11T07:53:00.625Z,13.75
2023-03-11T07:58:03.781Z,14.13
2023-03-11T08:03:06.782Z,12.60
2023-03-11T08:08:10.111Z,15.40
2023-03-11T08:13:13.059Z,16.52
2023-03-11T08:18:17.078Z,14.85
2023-03-11T08:23:20.162Z,16.15
2023-03-11T08:28:23.239Z,17.83
2023-03-11T08:33:26.338Z,17.48
2023-03-11T08:38:29.387Z,21.35
2023-03-11T08:43:32.567Z,21.00
2023-03-11T08:48:38.035Z,19.23
2023-03-11T08:53:41.056Z,19.05
2023-03-11T08:58:44.150Z,20.95
2023-03-11T09:03:47.210Z,18.55
2023-03-11T09:08:50.680Z,19.98
2023-03-11T09:13:53.729Z,21.83
2023-03-11T09:18:56.971Z,22.73
2023-03-11T09:24:00.598Z,22.60
2023-03-11T09:29:03.761Z,19.35
2023-03-11T09:34:06.776Z,20.70
2023-03-11T09:39:10.037Z,19.88
2023-03-11T09:44:20.406Z,18.42
2023-03-11T09:49:38.310Z,18.33
2023-03-11T09:54:45.757Z,19.45
2023-03-11T09:59:49.633Z,20.65
2023-03-11T10:04:57.070Z,19.20
2023-03-11T10:10:00.712Z,19.48
2023-03-11T10:15:49.825Z,20.58
2023-03-11T10:21:32.065Z,19.42
2023-03-11T10:26:44.069Z,19.35
2023-03-11T10:31:59.191Z,21.27
2023-03-11T10:37:20.567Z,23.45
2023-03-11T10:42:28.872Z,24.42
2023-03-11T10:47:31.840Z,25.95
2023-03-11T10:52:45.017Z,23.42
2023-03-11T10:57:48.036Z,24.13
2023-03-11T11:02:53.770Z,20.58
2023-03-11T11:08:14.780Z,19.92
2023-03-11T11:13:21.101Z,21.63
2023-03-11T11:18:29.613Z,19.05
2023-03-11T11:24:02.963Z,19.33
2023-03-11T11:29:10.484Z,21.15
2023-03-11T11:34:32.815Z,22.13
2023-03-11T11:40:11.694Z,19.80
2023-03-11T11:45:59.768Z,20.77
2023-03-11T11:51:15.711Z,19.35
2023-03-11T11:56:18.866Z,19.75
2023-03-11T12:01:49.124Z,22.80
2023-03-11T12:07:14.803Z,23.77
2023-03-11T12:12:48.372Z,24.20
2023-03-11T12:17:55.121Z,23.65
2023-03-11T12:23:12.990Z,22.67
2023-03-11T12:28:16.002Z,22.63
2023-03-11T12:33:30.724Z,20.67
2023-03-11T12:38:36.878Z,19.48
2023-03-11T12:43:42.803Z,21.13
2023-03-11T12:49:06.990Z,18.45
2023-03-11T12:54:32.686Z,16.17
2023-03-11T13:00:18.393Z,16.85
2023-03-11T13:05:39.615Z,14.38
2023-03-11T13:10:53.997Z,13.85
2023-03-11T13:15:57.895Z,15.38
2023-03-11T13:21:02.727Z,14.43
2023-03-11T13:26:28.894Z,14.93
2023-03-11T13:31:43.895Z,11.80
2023-03-11T13:37:03.887Z,13.77
2023-03-11T13:42:32.844Z,14.02
2023-03-11T13:47:37.187Z,13.98
2023-03-11T13:52:47.435Z,14.60
2023-03-11T13:57:53.149Z,13.60
2023-03-11T14:03:00.370Z,13.93
2023-03-11T14:08:24.538Z,14.15
2023-03-11T14:13:30.472Z,14.70
2023-03-11T14:23:44.382Z,14.02
2023-03-11T14:28:51.815Z,14.65
2023-03-11T14:34:04.554Z,14.80
2023-03-11T14:39:36.561Z,13.18
2023-03-11T14:44:43.968Z,12.73
2023-03-11T14:49:49.338Z,13.27
2023-03-11T14:54:54.120Z,13.18
2023-03-11T14:59:58.170Z,13.57
2023-03-11T15:05:08.778Z,12.80
2023-03-11T15:10:12.732Z,12.48
2023-03-11T15:15:23.297Z,12.68
2023-03-11T15:20:40.464Z,10.82
2023-03-11T15:25:50.396Z,12.63
2023-03-11T15:31:16.397Z,10.85
2023-03-11T15:36:34.422Z,10.20
2023-03-11T15:41:37.549Z,8.82
2023-03-11T15:46:40.484Z,8.10
2023-03-11T15:51:43.450Z,9.07
2023-03-11T15:56:46.604Z,10.82
2023-03-11T16:01:49.564Z,10.45
2023-03-11T16:07:07.125Z,10.57
2023-03-11T16:12:23.534Z,10.25
2023-03-11T16:17:28.657Z,13.13
2023-03-11T16:22:38.494Z,13.38
2023-03-11T16:27:42.594Z,12.65
2023-03-11T16:32:45.710Z,11.60
2023-03-11T16:37:49.093Z,12.40
2023-03-11T16:42:56.185Z,10.35
2023-03-11T16:48:00.314Z,9.25
2023-03-11T16:53:03.432Z,7.78
2023-03-11T16:58:06.774Z,13.15
2023-03-11T17:03:14.241Z,8.40
2023-03-11T17:08:18.624Z,9.27
2023-03-11T17:13:21.666Z,8.80
2023-03-11T17:18:24.673Z,8.38
2023-03-11T17:23:27.675Z,7.47
2023-03-11T17:28:30.695Z,6.88
2023-03-11T17:33:34.274Z,7.35
2023-03-11T17:38:37.285Z,5.65
2023-03-11T17:43:40.771Z,6.32
2023-03-11T17:48:45.584Z,6.43
2023-03-11T17:53:49.682Z,5.65
2023-03-11T17:58:52.754Z,6.00
2023-03-11T18:03:56.591Z,6.35
2023-03-11T18:08:59.808Z,5.47
2023-03-11T18:14:02.852Z,5.30
2023-03-11T18:19:06.002Z,6.13
2023-03-11T18:24:09.092Z,5.78
2023-03-11T18:29:12.050Z,4.20
2023-03-11T18:34:15.266Z,4.70
2023-03-11T18:39:18.242Z,3.28
2023-03-11T18:44:21.838Z,4.30
2023-03-11T18:49:24.803Z,4.07
2023-03-11T18:54:28.903Z,3.67
2023-03-11T18:59:32.041Z,3.17
2023-03-11T19:04:35.144Z,2.92
2023-03-11T19:09:38.214Z,3.58
2023-03-11T19:14:41.269Z,2.80
2023-03-11T19:19:44.435Z,3.13
2023-03-11T19:24:47.395Z,3.63
2023-03-11T19:29:50.336Z,4.70
2023-03-11T19:34:53.347Z,4.47
2023-03-11T19:39:56.400Z,5.13
2023-03-11T19:44:59.408Z,6.38
2023-03-11T19:50:02.392Z,6.78
2023-03-11T19:55:07.077Z,6.63
2023-03-11T20:00:10.800Z,5.47
2023-03-11T20:05:13.936Z,3.75
2023-03-11T20:10:17.695Z,2.92
2023-03-11T20:15:20.805Z,3.08
2023-03-11T20:20:24.060Z,3.22
2023-03-11T20:25:29.914Z,3.03
2023-03-11T20:30:33.043Z,2.83
2023-03-11T20:35:36.065Z,2.60
2023-03-11T20:40:39.512Z,2.83
2023-03-11T20:45:42.588Z,3.03
2023-03-11T20:50:45.616Z,2.13
2023-03-11T20:55:48.719Z,2.33
2023-03-11T21:00:51.906Z,2.80
2023-03-11T21:05:55.021Z,2.00
2023-03-11T21:11:01.642Z,3.08
2023-03-11T21:16:06.116Z,2.47
2023-03-11T21:21:10.921Z,2.55
2023-03-11T21:26:15.451Z,2.33
2023-03-11T21:31:25.159Z,2.65
2023-03-11T21:36:29.985Z,3.38
2023-03-11T21:41:33.089Z,2.63
2023-03-11T21:46:36.137Z,2.40
2023-03-11T21:51:39.241Z,2.38
2023-03-11T21:56:42.614Z,2.33
2023-03-11T22:01:45.742Z,2.40
2023-03-11T22:06:48.841Z,2.15
2023-03-11T22:11:51.941Z,2.50
2023-03-11T22:16:55.181Z,2.60
2023-03-11T22:21:58.523Z,2.35
2023-03-11T22:27:01.539Z,2.53
2023-03-11T22:32:04.716Z,2.33
2023-03-11T22:37:08.615Z,2.53
2023-03-11T22:42:12.609Z,2.90
2023-03-11T22:47:15.680Z,3.22
2023-03-11T22:52:18.636Z,2.25
2023-03-11T22:57:21.939Z,2.75
2023-03-11T23:02:24.964Z,2.75
2023-03-11T23:07:27.963Z,3.03
2023-03-11T23:12:30.913Z,3.20
2023-03-11T23:17:34.370Z,3.10
2023-03-11T23:22:38.808Z,4.10
2023-03-11T23:27:43.624Z,4.18
2023-03-11T23:32:46.704Z,3.45
2023-03-11T23:37:50.985Z,5.32
2023-03-11T23:42:54.026Z,4.72
2023-03-11T23:47:57.033Z,4.63
2023-03-11T23:52:59.971Z,3.70
2023-03-11T23:58:02.945Z,4.32
